Addison, Illinois
Current Conditions -  °F | °C
As of 4:51 AM on Friday 28 Nov 2014 (Local Time) from KORD Reporting Station
Light Snow Light Snow  
Wind Chill: 12°   Ceiling: 7000
Heat Index: 19°   Visibility: 10mi
Dew Point: 12°   Wind: 5mph
Humidity: 74%   Direction: 190°S
Pressure: 30.32"   Gusts: NA
Location:  41.93°N, 87.99°W
Report Text: KORD 281051Z 19004KT 10SM -SN BKN070 OVC080 M07/M11 A3032 RMK AO2 SNB48 SLP279 P0000 T10721111
Loading
Personal Weather Stations






























Interactive Weather Map New forecast layout! Learn more

10-Day Weather Forecast

Advertisements
Track Severe Weather on mobile